sensor_id;sensor_type;location;lat;lon;timestamp;temperature;humidity
22813;DHT22;11573;51.334;3.244;2022-10-16T00:01:30;13.50;99.90
22813;DHT22;11573;51.334;3.244;2022-10-16T00:03:58;13.50;99.90
22813;DHT22;11573;51.334;3.244;2022-10-16T00:06:26;13.50;99.90
22813;DHT22;11573;51.334;3.244;2022-10-16T00:08:54;13.60;99.90
22813;DHT22;11573;51.334;3.244;2022-10-16T00:13:51;13.70;99.90
22813;DHT22;11573;51.334;3.244;2022-10-16T00:16:19;13.70;99.90
22813;DHT22;11573;51.334;3.244;2022-10-16T00:18:46;13.70;99.90
22813;DHT22;11573;51.334;3.244;2022-10-16T00:21:22;13.70;99.90
22813;DHT22;11573;51.334;3.244;2022-10-16T00:23:54;13.70;99.90
22813;DHT22;11573;51.334;3.244;2022-10-16T00:26:21;13.70;99.90
22813;DHT22;11573;51.334;3.244;2022-10-16T00:28:49;13.70;99.90
22813;DHT22;11573;51.334;3.244;2022-10-16T00:31:18;13.70;99.90
22813;DHT22;11573;51.334;3.244;2022-10-16T00:33:46;13.70;99.90
22813;DHT22;11573;51.334;3.244;2022-10-16T00:36:16;13.80;99.90
22813;DHT22;11573;51.334;3.244;2022-10-16T00:38:43;13.90;99.90
22813;DHT22;11573;51.334;3.244;2022-10-16T00:41:16;13.90;99.90
22813;DHT22;11573;51.334;3.244;2022-10-16T00:43:51;13.90;99.90
22813;DHT22;11573;51.334;3.244;2022-10-16T00:46:20;14.00;99.90
22813;DHT22;11573;51.334;3.244;2022-10-16T00:48:57;13.90;99.90
22813;DHT22;11573;51.334;3.244;2022-10-16T00:51:41;13.90;99.90
22813;DHT22;11573;51.334;3.244;2022-10-16T00:54:13;13.90;99.90
22813;DHT22;11573;51.334;3.244;2022-10-16T00:56:41;14.00;99.90
22813;DHT22;11573;51.334;3.244;2022-10-16T00:59:18;14.00;99.90
22813;DHT22;11573;51.334;3.244;2022-10-16T01:01:46;14.00;99.90
22813;DHT22;11573;51.334;3.244;2022-10-16T01:04:12;14.10;99.90
22813;DHT22;11573;51.334;3.244;2022-10-16T01:06:46;14.10;99.90
22813;DHT22;11573;51.334;3.244;2022-10-16T01:09:17;14.10;99.90
22813;DHT22;11573;51.334;3.244;2022-10-16T01:12:05;14.10;99.90
22813;DHT22;11573;51.334;3.244;2022-10-16T01:17:24;14.10;99.90
22813;DHT22;11573;51.334;3.244;2022-10-16T01:20:00;14.10;99.90
22813;DHT22;11573;51.334;3.244;2022-10-16T01:25:52;14.10;99.90
22813;DHT22;11573;51.334;3.244;2022-10-16T01:28:28;14.00;99.90
22813;DHT22;11573;51.334;3.244;2022-10-16T01:30:58;14.00;99.90
22813;DHT22;11573;51.334;3.244;2022-10-16T01:33:38;14.00;99.90
22813;DHT22;11573;51.334;3.244;2022-10-16T01:36:12;14.00;99.90
22813;DHT22;11573;51.334;3.244;2022-10-16T01:38:41;14.00;99.90
22813;DHT22;11573;51.334;3.244;2022-10-16T01:41:14;14.00;99.90
22813;DHT22;11573;51.334;3.244;2022-10-16T01:43:46;14.00;99.90
22813;DHT22;11573;51.334;3.244;2022-10-16T01:46:18;14.00;99.90
22813;DHT22;11573;51.334;3.244;2022-10-16T01:48:48;14.00;99.90
22813;DHT22;11573;51.334;3.244;2022-10-16T01:51:16;14.00;99.90
22813;DHT22;11573;51.334;3.244;2022-10-16T01:53:48;14.00;99.90
22813;DHT22;11573;51.334;3.244;2022-10-16T01:56:17;13.90;99.90
22813;DHT22;11573;51.334;3.244;2022-10-16T01:58:52;13.90;99.90
22813;DHT22;11573;51.334;3.244;2022-10-16T02:01:23;13.90;99.90
22813;DHT22;11573;51.334;3.244;2022-10-16T02:03:54;13.90;99.90
22813;DHT22;11573;51.334;3.244;2022-10-16T02:06:23;13.80;99.90
22813;DHT22;11573;51.334;3.244;2022-10-16T02:08:50;13.80;99.90
22813;DHT22;11573;51.334;3.244;2022-10-16T02:11:19;13.80;99.90
22813;DHT22;11573;51.334;3.244;2022-10-16T02:13:53;13.80;99.90
22813;DHT22;11573;51.334;3.244;2022-10-16T02:16:20;13.70;99.90
22813;DHT22;11573;51.334;3.244;2022-10-16T02:18:47;13.70;99.90
22813;DHT22;11573;51.334;3.244;2022-10-16T02:21:28;13.60;99.90
22813;DHT22;11573;51.334;3.244;2022-10-16T02:24:03;13.60;99.90
22813;DHT22;11573;51.334;3.244;2022-10-16T02:26:49;13.50;99.90
22813;DHT22;11573;51.334;3.244;2022-10-16T02:29:22;13.50;99.90
22813;DHT22;11573;51.334;3.244;2022-10-16T02:31:58;13.50;99.90
22813;DHT22;11573;51.334;3.244;2022-10-16T02:34:27;13.40;99.90
22813;DHT22;11573;51.334;3.244;2022-10-16T02:36:56;13.40;99.90
22813;DHT22;11573;51.334;3.244;2022-10-16T02:39:24;13.30;99.90
22813;DHT22;11573;51.334;3.244;2022-10-16T02:41:50;13.30;99.90
22813;DHT22;11573;51.334;3.244;2022-10-16T02:44:17;13.30;99.90
22813;DHT22;11573;51.334;3.244;2022-10-16T02:46:44;13.30;99.90
22813;DHT22;11573;51.334;3.244;2022-10-16T02:49:11;13.20;99.90
22813;DHT22;11573;51.334;3.244;2022-10-16T02:51:38;13.20;99.90
22813;DHT22;11573;51.334;3.244;2022-10-16T02:54:05;13.20;99.90
22813;DHT22;11573;51.334;3.244;2022-10-16T02:56:32;13.20;99.90
22813;DHT22;11573;51.334;3.244;2022-10-16T02:58:58;13.20;99.90
22813;DHT22;11573;51.334;3.244;2022-10-16T03:01:25;13.20;99.90
22813;DHT22;11573;51.334;3.244;2022-10-16T03:03:52;13.20;99.90
22813;DHT22;11573;51.334;3.244;2022-10-16T03:06:19;13.30;99.90
22813;DHT22;11573;51.334;3.244;2022-10-16T03:08:46;13.30;99.90
22813;DHT22;11573;51.334;3.244;2022-10-16T03:11:13;13.30;99.90
22813;DHT22;11573;51.334;3.244;2022-10-16T03:13:40;13.30;99.90
22813;DHT22;11573;51.334;3.244;2022-10-16T03:16:07;13.30;99.90
22813;DHT22;11573;51.334;3.244;2022-10-16T03:18:34;13.30;99.90
22813;DHT22;11573;51.334;3.244;2022-10-16T03:21:00;13.30;99.90
22813;DHT22;11573;51.334;3.244;2022-10-16T03:23:33;13.30;99.90
22813;DHT22;11573;51.334;3.244;2022-10-16T03:26:00;13.30;99.90
22813;DHT22;11573;51.334;3.244;2022-10-16T03:28:27;13.30;99.90
22813;DHT22;11573;51.334;3.244;2022-10-16T03:30:54;13.30;99.90
22813;DHT22;11573;51.334;3.244;2022-10-16T03:33:21;13.30;99.90
22813;DHT22;11573;51.334;3.244;2022-10-16T03:35:52;13.30;99.90
22813;DHT22;11573;51.334;3.244;2022-10-16T03:38:20;13.30;99.90
22813;DHT22;11573;51.334;3.244;2022-10-16T03:40:48;13.30;99.90
22813;DHT22;11573;51.334;3.244;2022-10-16T03:43:14;13.30;99.90
22813;DHT22;11573;51.334;3.244;2022-10-16T03:45:41;13.20;99.90
22813;DHT22;11573;51.334;3.244;2022-10-16T03:48:09;13.20;99.90
22813;DHT22;11573;51.334;3.244;2022-10-16T03:50:36;13.20;99.90
22813;DHT22;11573;51.334;3.244;2022-10-16T03:53:03;13.20;99.90
22813;DHT22;11573;51.334;3.244;2022-10-16T03:55:30;13.20;99.90
22813;DHT22;11573;51.334;3.244;2022-10-16T03:57:57;13.20;99.90
22813;DHT22;11573;51.334;3.244;2022-10-16T04:00:24;13.10;99.90
22813;DHT22;11573;51.334;3.244;2022-10-16T04:02:51;13.10;99.90
22813;DHT22;11573;51.334;3.244;2022-10-16T04:05:18;13.10;99.90
22813;DHT22;11573;51.334;3.244;2022-10-16T04:07:44;13.10;99.90
22813;DHT22;11573;51.334;3.244;2022-10-16T04:10:11;13.10;99.90
22813;DHT22;11573;51.334;3.244;2022-10-16T04:12:38;13.10;99.90
22813;DHT22;11573;51.334;3.244;2022-10-16T04:15:05;13.20;99.90
22813;DHT22;11573;51.334;3.244;2022-10-16T04:17:32;13.10;99.90
22813;DHT22;11573;51.334;3.244;2022-10-16T04:19:59;13.10;99.90
22813;DHT22;11573;51.334;3.244;2022-10-16T04:22:26;13.10;99.90
22813;DHT22;11573;51.334;3.244;2022-10-16T04:24:58;13.20;99.90
22813;DHT22;11573;51.334;3.244;2022-10-16T04:27:25;13.10;99.90
22813;DHT22;11573;51.334;3.244;2022-10-16T04:29:52;13.20;99.90
22813;DHT22;11573;51.334;3.244;2022-10-16T04:32:19;13.20;99.90
22813;DHT22;11573;51.334;3.244;2022-10-16T04:34:46;13.20;99.90
22813;DHT22;11573;51.334;3.244;2022-10-16T04:37:13;13.20;99.90
22813;DHT22;11573;51.334;3.244;2022-10-16T04:39:40;13.20;99.90
22813;DHT22;11573;51.334;3.244;2022-10-16T04:42:07;13.30;99.90
22813;DHT22;11573;51.334;3.244;2022-10-16T04:44:34;13.40;99.90
22813;DHT22;11573;51.334;3.244;2022-10-16T04:47:01;13.50;99.90
22813;DHT22;11573;51.334;3.244;2022-10-16T04:49:28;13.50;99.90
22813;DHT22;11573;51.334;3.244;2022-10-16T04:51:55;13.60;99.90
22813;DHT22;11573;51.334;3.244;2022-10-16T04:54:21;13.70;99.90
22813;DHT22;11573;51.334;3.244;2022-10-16T04:56:48;13.70;99.90
22813;DHT22;11573;51.334;3.244;2022-10-16T04:59:19;13.70;99.90
22813;DHT22;11573;51.334;3.244;2022-10-16T05:01:46;13.70;99.90
22813;DHT22;11573;51.334;3.244;2022-10-16T05:04:13;13.70;99.90
22813;DHT22;11573;51.334;3.244;2022-10-16T05:06:41;13.80;99.90
22813;DHT22;11573;51.334;3.244;2022-10-16T05:09:09;13.80;99.90
22813;DHT22;11573;51.334;3.244;2022-10-16T05:11:36;13.80;99.90
22813;DHT22;11573;51.334;3.244;2022-10-16T05:14:03;13.80;99.90
22813;DHT22;11573;51.334;3.244;2022-10-16T05:16:30;13.80;99.90
22813;DHT22;11573;51.334;3.244;2022-10-16T05:18:57;13.70;99.90
22813;DHT22;11573;51.334;3.244;2022-10-16T05:21:44;13.70;99.90
22813;DHT22;11573;51.334;3.244;2022-10-16T05:24:15;13.70;99.90
22813;DHT22;11573;51.334;3.244;2022-10-16T05:26:42;13.60;99.90
22813;DHT22;11573;51.334;3.244;2022-10-16T05:29:09;13.60;99.90
22813;DHT22;11573;51.334;3.244;2022-10-16T05:31:36;13.60;99.90
22813;DHT22;11573;51.334;3.244;2022-10-16T05:34:04;13.50;99.90
22813;DHT22;11573;51.334;3.244;2022-10-16T05:36:31;13.50;99.90
22813;DHT22;11573;51.334;3.244;2022-10-16T05:38:57;13.50;99.90
22813;DHT22;11573;51.334;3.244;2022-10-16T05:41:24;13.40;99.90
22813;DHT22;11573;51.334;3.244;2022-10-16T05:43:53;13.30;99.90
22813;DHT22;11573;51.334;3.244;2022-10-16T05:46:20;13.20;99.90
22813;DHT22;11573;51.334;3.244;2022-10-16T05:48:47;13.20;99.90
22813;DHT22;11573;51.334;3.244;2022-10-16T05:51:14;13.10;99.90
22813;DHT22;11573;51.334;3.244;2022-10-16T05:53:42;13.10;99.90
22813;DHT22;11573;51.334;3.244;2022-10-16T05:56:10;13.00;99.90
22813;DHT22;11573;51.334;3.244;2022-10-16T05:58:39;13.00;99.90
22813;DHT22;11573;51.334;3.244;2022-10-16T06:01:13;13.00;99.90
22813;DHT22;11573;51.334;3.244;2022-10-16T06:03:40;13.00;99.90
22813;DHT22;11573;51.334;3.244;2022-10-16T06:06:21;13.00;99.90
22813;DHT22;11573;51.334;3.244;2022-10-16T06:08:49;12.90;99.90
22813;DHT22;11573;51.334;3.244;2022-10-16T06:11:18;12.90;99.90
22813;DHT22;11573;51.334;3.244;2022-10-16T06:13:52;12.90;99.90
22813;DHT22;11573;51.334;3.244;2022-10-16T06:16:19;12.90;99.90
22813;DHT22;11573;51.334;3.244;2022-10-16T06:18:47;12.90;99.90
22813;DHT22;11573;51.334;3.244;2022-10-16T06:21:17;12.80;99.90
22813;DHT22;11573;51.334;3.244;2022-10-16T06:23:44;12.80;99.90
22813;DHT22;11573;51.334;3.244;2022-10-16T06:26:15;12.80;99.90
22813;DHT22;11573;51.334;3.244;2022-10-16T06:28:42;12.80;99.90
22813;DHT22;11573;51.334;3.244;2022-10-16T06:31:11;12.80;99.90
22813;DHT22;11573;51.334;3.244;2022-10-16T06:33:38;12.90;99.90
22813;DHT22;11573;51.334;3.244;2022-10-16T06:36:11;12.90;99.90
22813;DHT22;11573;51.334;3.244;2022-10-16T06:38:39;12.90;99.90
22813;DHT22;11573;51.334;3.244;2022-10-16T06:41:07;13.00;99.90
22813;DHT22;11573;51.334;3.244;2022-10-16T06:43:34;13.00;99.90
22813;DHT22;11573;51.334;3.244;2022-10-16T06:46:05;13.00;99.90
22813;DHT22;11573;51.334;3.244;2022-10-16T06:48:34;13.10;99.90
22813;DHT22;11573;51.334;3.244;2022-10-16T06:51:18;13.10;99.90
22813;DHT22;11573;51.334;3.244;2022-10-16T06:53:50;13.20;99.90
22813;DHT22;11573;51.334;3.244;2022-10-16T06:56:30;13.20;99.90
22813;DHT22;11573;51.334;3.244;2022-10-16T06:58:58;13.10;99.90
22813;DHT22;11573;51.334;3.244;2022-10-16T07:01:26;13.10;99.90
22813;DHT22;11573;51.334;3.244;2022-10-16T07:03:53;13.10;99.90
22813;DHT22;11573;51.334;3.244;2022-10-16T07:06:22;13.10;99.90
22813;DHT22;11573;51.334;3.244;2022-10-16T07:08:50;13.10;99.90
22813;DHT22;11573;51.334;3.244;2022-10-16T07:11:19;13.20;99.90
22813;DHT22;11573;51.334;3.244;2022-10-16T07:13:47;13.20;99.90
22813;DHT22;11573;51.334;3.244;2022-10-16T07:16:23;13.30;99.90
22813;DHT22;11573;51.334;3.244;2022-10-16T07:18:50;13.30;99.90
22813;DHT22;11573;51.334;3.244;2022-10-16T07:21:21;13.30;99.90
22813;DHT22;11573;51.334;3.244;2022-10-16T07:23:53;13.40;99.90
22813;DHT22;11573;51.334;3.244;2022-10-16T07:26:20;13.40;99.90
22813;DHT22;11573;51.334;3.244;2022-10-16T07:28:47;13.40;99.90
22813;DHT22;11573;51.334;3.244;2022-10-16T07:31:16;13.50;99.90
22813;DHT22;11573;51.334;3.244;2022-10-16T07:33:44;13.60;99.90
22813;DHT22;11573;51.334;3.244;2022-10-16T07:36:12;13.60;99.90
22813;DHT22;11573;51.334;3.244;2022-10-16T07:38:42;13.70;99.90
22813;DHT22;11573;51.334;3.244;2022-10-16T07:41:11;13.70;99.90
22813;DHT22;11573;51.334;3.244;2022-10-16T07:43:39;13.80;99.90
22813;DHT22;11573;51.334;3.244;2022-10-16T07:46:06;13.80;99.90
22813;DHT22;11573;51.334;3.244;2022-10-16T07:48:34;13.90;99.90
22813;DHT22;11573;51.334;3.244;2022-10-16T07:51:06;13.90;99.90
22813;DHT22;11573;51.334;3.244;2022-10-16T07:53:33;13.90;99.90
22813;DHT22;11573;51.334;3.244;2022-10-16T07:56:02;14.00;99.90
22813;DHT22;11573;51.334;3.244;2022-10-16T07:58:29;14.10;99.90
22813;DHT22;11573;51.334;3.244;2022-10-16T08:00:57;14.10;99.90
22813;DHT22;11573;51.334;3.244;2022-10-16T08:03:25;14.20;99.90
22813;DHT22;11573;51.334;3.244;2022-10-16T08:05:52;14.20;99.90
22813;DHT22;11573;51.334;3.244;2022-10-16T08:08:19;14.30;99.90
22813;DHT22;11573;51.334;3.244;2022-10-16T08:10:46;14.30;99.90
22813;DHT22;11573;51.334;3.244;2022-10-16T08:13:13;14.40;99.90
22813;DHT22;11573;51.334;3.244;2022-10-16T08:15:43;14.50;99.90
22813;DHT22;11573;51.334;3.244;2022-10-16T08:18:11;14.70;99.90
22813;DHT22;11573;51.334;3.244;2022-10-16T08:20:39;14.70;99.90
22813;DHT22;11573;51.334;3.244;2022-10-16T08:23:06;14.70;99.90
22813;DHT22;11573;51.334;3.244;2022-10-16T08:25:37;14.70;99.90
22813;DHT22;11573;51.334;3.244;2022-10-16T08:28:05;14.80;99.90
22813;DHT22;11573;51.334;3.244;2022-10-16T08:30:32;14.80;99.90
22813;DHT22;11573;51.334;3.244;2022-10-16T08:33:00;14.90;99.90
22813;DHT22;11573;51.334;3.244;2022-10-16T08:35:28;14.90;99.90
22813;DHT22;11573;51.334;3.244;2022-10-16T08:37:56;14.90;99.90
22813;DHT22;11573;51.334;3.244;2022-10-16T08:40:26;14.80;99.90
22813;DHT22;11573;51.334;3.244;2022-10-16T08:43:00;14.90;99.90
22813;DHT22;11573;51.334;3.244;2022-10-16T08:48:30;15.00;99.90
22813;DHT22;11573;51.334;3.244;2022-10-16T08:51:02;15.10;99.90
22813;DHT22;11573;51.334;3.244;2022-10-16T08:53:43;15.20;99.90
22813;DHT22;11573;51.334;3.244;2022-10-16T08:56:12;15.30;99.90
22813;DHT22;11573;51.334;3.244;2022-10-16T08:58:39;15.40;99.90
22813;DHT22;11573;51.334;3.244;2022-10-16T09:01:13;15.30;99.90
22813;DHT22;11573;51.334;3.244;2022-10-16T09:06:59;15.50;99.90
22813;DHT22;11573;51.334;3.244;2022-10-16T09:10:00;15.50;99.90
22813;DHT22;11573;51.334;3.244;2022-10-16T09:12:43;15.60;99.90
22813;DHT22;11573;51.334;3.244;2022-10-16T09:18:17;15.70;99.90
22813;DHT22;11573;51.334;3.244;2022-10-16T09:23:25;16.00;99.90
22813;DHT22;11573;51.334;3.244;2022-10-16T09:25:53;16.00;99.90
22813;DHT22;11573;51.334;3.244;2022-10-16T09:28:20;16.10;99.90
22813;DHT22;11573;51.334;3.244;2022-10-16T09:30:48;16.10;99.90
22813;DHT22;11573;51.334;3.244;2022-10-16T09:33:19;16.10;99.90
22813;DHT22;11573;51.334;3.244;2022-10-16T09:35:53;16.00;99.90
22813;DHT22;11573;51.334;3.244;2022-10-16T09:38:28;15.90;99.90
22813;DHT22;11573;51.334;3.244;2022-10-16T09:40:57;15.80;99.90
22813;DHT22;11573;51.334;3.244;2022-10-16T09:46:36;16.00;99.90
22813;DHT22;11573;51.334;3.244;2022-10-16T09:49:26;16.20;99.90
22813;DHT22;11573;51.334;3.244;2022-10-16T09:52:14;16.30;99.90
22813;DHT22;11573;51.334;3.244;2022-10-16T09:54:54;16.40;99.90
22813;DHT22;11573;51.334;3.244;2022-10-16T09:57:22;16.40;99.90
22813;DHT22;11573;51.334;3.244;2022-10-16T09:59:54;16.40;99.90
22813;DHT22;11573;51.334;3.244;2022-10-16T10:02:31;16.30;99.90
22813;DHT22;11573;51.334;3.244;2022-10-16T10:05:01;16.20;99.90
22813;DHT22;11573;51.334;3.244;2022-10-16T10:07:33;16.30;99.90
22813;DHT22;11573;51.334;3.244;2022-10-16T10:10:04;16.40;99.90
22813;DHT22;11573;51.334;3.244;2022-10-16T10:12:32;16.60;99.90
22813;DHT22;11573;51.334;3.244;2022-10-16T10:15:12;16.70;99.90
22813;DHT22;11573;51.334;3.244;2022-10-16T10:20:34;17.10;99.90
22813;DHT22;11573;51.334;3.244;2022-10-16T10:23:20;17.10;99.90
22813;DHT22;11573;51.334;3.244;2022-10-16T10:26:04;17.30;99.90
22813;DHT22;11573;51.334;3.244;2022-10-16T10:29:04;17.30;99.90
22813;DHT22;11573;51.334;3.244;2022-10-16T10:31:38;17.30;99.90
22813;DHT22;11573;51.334;3.244;2022-10-16T10:43:21;17.50;99.90
22813;DHT22;11573;51.334;3.244;2022-10-16T10:45:58;17.70;99.90
22813;DHT22;11573;51.334;3.244;2022-10-16T10:54:57;17.80;99.90
22813;DHT22;11573;51.334;3.244;2022-10-16T10:57:30;18.00;99.90
22813;DHT22;11573;51.334;3.244;2022-10-16T11:02:41;17.90;99.90
22813;DHT22;11573;51.334;3.244;2022-10-16T11:05:26;17.80;99.90
22813;DHT22;11573;51.334;3.244;2022-10-16T11:08:00;18.10;99.90
22813;DHT22;11573;51.334;3.244;2022-10-16T11:10:45;18.00;99.90
22813;DHT22;11573;51.334;3.244;2022-10-16T11:15:58;18.10;99.90
22813;DHT22;11573;51.334;3.244;2022-10-16T11:21:46;18.20;99.90
22813;DHT22;11573;51.334;3.244;2022-10-16T11:24:35;18.10;99.90
22813;DHT22;11573;51.334;3.244;2022-10-16T11:27:08;18.00;99.90
22813;DHT22;11573;51.334;3.244;2022-10-16T11:29:49;18.00;99.90
22813;DHT22;11573;51.334;3.244;2022-10-16T11:32:35;18.00;99.90
22813;DHT22;11573;51.334;3.244;2022-10-16T11:35:19;18.10;99.90
22813;DHT22;11573;51.334;3.244;2022-10-16T11:37:49;18.10;99.90
22813;DHT22;11573;51.334;3.244;2022-10-16T11:40:33;18.10;99.90
22813;DHT22;11573;51.334;3.244;2022-10-16T11:43:18;18.20;99.90
22813;DHT22;11573;51.334;3.244;2022-10-16T11:45:57;18.30;99.90
22813;DHT22;11573;51.334;3.244;2022-10-16T11:49:15;18.50;99.90
22813;DHT22;11573;51.334;3.244;2022-10-16T11:54:26;19.10;95.00
22813;DHT22;11573;51.334;3.244;2022-10-16T11:56:57;19.70;93.90
22813;DHT22;11573;51.334;3.244;2022-10-16T12:02:30;20.00;82.10
22813;DHT22;11573;51.334;3.244;2022-10-16T12:07:55;20.30;73.10
22813;DHT22;11573;51.334;3.244;2022-10-16T12:10:29;20.30;68.30
22813;DHT22;11573;51.334;3.244;2022-10-16T12:12:58;20.10;60.30
22813;DHT22;11573;51.334;3.244;2022-10-16T12:15:28;20.00;65.30
22813;DHT22;11573;51.334;3.244;2022-10-16T12:18:23;20.10;67.90
22813;DHT22;11573;51.334;3.244;2022-10-16T12:20:57;20.30;63.20
22813;DHT22;11573;51.334;3.244;2022-10-16T12:26:13;19.60;65.00
22813;DHT22;11573;51.334;3.244;2022-10-16T12:28:40;19.60;69.50
22813;DHT22;11573;51.334;3.244;2022-10-16T12:31:09;19.40;71.80
22813;DHT22;11573;51.334;3.244;2022-10-16T12:33:58;19.20;81.60
22813;DHT22;11573;51.334;3.244;2022-10-16T12:36:35;19.40;91.40
22813;DHT22;11573;51.334;3.244;2022-10-16T12:39:03;19.70;91.30
22813;DHT22;11573;51.334;3.244;2022-10-16T12:41:35;19.90;70.40
22813;DHT22;11573;51.334;3.244;2022-10-16T12:44:04;20.20;78.60
22813;DHT22;11573;51.334;3.244;2022-10-16T12:51:41;20.20;64.60
22813;DHT22;11573;51.334;3.244;2022-10-16T13:09:10;20.60;66.80
22813;DHT22;11573;51.334;3.244;2022-10-16T13:14:35;20.90;55.80
22813;DHT22;11573;51.334;3.244;2022-10-16T13:20:11;20.70;43.30
22813;DHT22;11573;51.334;3.244;2022-10-16T13:25:21;20.90;46.30
22813;DHT22;11573;51.334;3.244;2022-10-16T13:30:30;21.00;38.50
22813;DHT22;11573;51.334;3.244;2022-10-16T13:33:02;20.90;46.00
22813;DHT22;11573;51.334;3.244;2022-10-16T13:35:33;20.80;46.60
22813;DHT22;11573;51.334;3.244;2022-10-16T13:38:19;20.70;43.20
22813;DHT22;11573;51.334;3.244;2022-10-16T13:40:57;20.70;47.30
22813;DHT22;11573;51.334;3.244;2022-10-16T13:46:05;20.40;46.70
22813;DHT22;11573;51.334;3.244;2022-10-16T13:48:34;20.30;51.30
22813;DHT22;11573;51.334;3.244;2022-10-16T13:51:16;20.40;49.00
22813;DHT22;11573;51.334;3.244;2022-10-16T13:53:45;20.20;49.30
22813;DHT22;11573;51.334;3.244;2022-10-16T13:56:22;20.20;58.50
22813;DHT22;11573;51.334;3.244;2022-10-16T13:59:25;20.10;59.30
22813;DHT22;11573;51.334;3.244;2022-10-16T14:01:55;20.10;58.00
22813;DHT22;11573;51.334;3.244;2022-10-16T14:04:24;20.10;65.10
22813;DHT22;11573;51.334;3.244;2022-10-16T14:06:51;20.00;60.30
22813;DHT22;11573;51.334;3.244;2022-10-16T14:09:37;19.80;63.30
22813;DHT22;11573;51.334;3.244;2022-10-16T14:12:11;19.90;73.60
22813;DHT22;11573;51.334;3.244;2022-10-16T14:14:44;19.90;72.40
22813;DHT22;11573;51.334;3.244;2022-10-16T14:17:17;19.90;65.70
22813;DHT22;11573;51.334;3.244;2022-10-16T14:19:49;19.80;67.00
22813;DHT22;11573;51.334;3.244;2022-10-16T14:22:28;19.80;73.40
22813;DHT22;11573;51.334;3.244;2022-10-16T14:24:56;19.80;80.20
22813;DHT22;11573;51.334;3.244;2022-10-16T14:27:33;19.70;80.00
22813;DHT22;11573;51.334;3.244;2022-10-16T14:30:22;19.70;78.90
22813;DHT22;11573;51.334;3.244;2022-10-16T14:33:01;19.70;79.10
22813;DHT22;11573;51.334;3.244;2022-10-16T14:35:39;19.50;84.40
22813;DHT22;11573;51.334;3.244;2022-10-16T14:38:18;19.50;87.40
22813;DHT22;11573;51.334;3.244;2022-10-16T14:40:49;19.40;91.60
22813;DHT22;11573;51.334;3.244;2022-10-16T14:43:34;19.40;91.30
22813;DHT22;11573;51.334;3.244;2022-10-16T14:46:03;19.30;94.00
22813;DHT22;11573;51.334;3.244;2022-10-16T14:48:33;19.20;96.30
22813;DHT22;11573;51.334;3.244;2022-10-16T14:51:00;19.20;94.40
22813;DHT22;11573;51.334;3.244;2022-10-16T14:53:26;19.10;99.50
22813;DHT22;11573;51.334;3.244;2022-10-16T14:55:53;18.90;98.80
22813;DHT22;11573;51.334;3.244;2022-10-16T14:58:22;18.70;99.90
22813;DHT22;11573;51.334;3.244;2022-10-16T15:00:49;18.60;99.90
22813;DHT22;11573;51.334;3.244;2022-10-16T15:03:16;18.60;99.90
22813;DHT22;11573;51.334;3.244;2022-10-16T15:05:43;18.50;99.90
22813;DHT22;11573;51.334;3.244;2022-10-16T15:08:10;18.40;99.90
22813;DHT22;11573;51.334;3.244;2022-10-16T15:10:41;18.40;99.90
22813;DHT22;11573;51.334;3.244;2022-10-16T15:13:13;18.20;99.90
22813;DHT22;11573;51.334;3.244;2022-10-16T15:15:43;18.30;99.90
22813;DHT22;11573;51.334;3.244;2022-10-16T15:18:11;18.20;99.90
22813;DHT22;11573;51.334;3.244;2022-10-16T15:20:39;18.20;99.90
22813;DHT22;11573;51.334;3.244;2022-10-16T15:23:13;18.10;99.90
22813;DHT22;11573;51.334;3.244;2022-10-16T15:25:49;18.20;99.90
22813;DHT22;11573;51.334;3.244;2022-10-16T15:28:17;18.10;99.90
22813;DHT22;11573;51.334;3.244;2022-10-16T15:30:45;18.10;99.90
22813;DHT22;11573;51.334;3.244;2022-10-16T15:33:18;18.00;99.90
22813;DHT22;11573;51.334;3.244;2022-10-16T15:35:47;17.90;99.90
22813;DHT22;11573;51.334;3.244;2022-10-16T15:38:15;17.90;99.90
22813;DHT22;11573;51.334;3.244;2022-10-16T15:40:43;17.80;99.90
22813;DHT22;11573;51.334;3.244;2022-10-16T15:43:10;17.80;99.90
22813;DHT22;11573;51.334;3.244;2022-10-16T15:45:38;17.70;99.90
22813;DHT22;11573;51.334;3.244;2022-10-16T15:48:05;17.70;99.90
22813;DHT22;11573;51.334;3.244;2022-10-16T15:50:32;17.70;99.90
22813;DHT22;11573;51.334;3.244;2022-10-16T15:52:59;17.60;99.90
22813;DHT22;11573;51.334;3.244;2022-10-16T15:55:26;17.50;99.90
22813;DHT22;11573;51.334;3.244;2022-10-16T15:57:53;17.50;99.90
22813;DHT22;11573;51.334;3.244;2022-10-16T16:00:21;17.40;99.90
22813;DHT22;11573;51.334;3.244;2022-10-16T16:02:53;17.30;99.90
22813;DHT22;11573;51.334;3.244;2022-10-16T16:05:21;17.20;99.90
22813;DHT22;11573;51.334;3.244;2022-10-16T16:07:49;17.10;99.90
22813;DHT22;11573;51.334;3.244;2022-10-16T16:10:18;17.00;99.90
22813;DHT22;11573;51.334;3.244;2022-10-16T16:12:48;17.00;99.90
22813;DHT22;11573;51.334;3.244;2022-10-16T16:15:22;16.90;99.90
22813;DHT22;11573;51.334;3.244;2022-10-16T16:17:49;16.80;99.90
22813;DHT22;11573;51.334;3.244;2022-10-16T16:20:16;16.90;99.90
22813;DHT22;11573;51.334;3.244;2022-10-16T16:22:43;16.90;99.90
22813;DHT22;11573;51.334;3.244;2022-10-16T16:25:10;16.90;99.90
22813;DHT22;11573;51.334;3.244;2022-10-16T16:27:37;16.80;99.90
22813;DHT22;11573;51.334;3.244;2022-10-16T16:30:10;16.80;99.90
22813;DHT22;11573;51.334;3.244;2022-10-16T16:32:45;16.70;99.90
22813;DHT22;11573;51.334;3.244;2022-10-16T16:35:11;16.70;99.90
22813;DHT22;11573;51.334;3.244;2022-10-16T16:37:38;16.60;99.90
22813;DHT22;11573;51.334;3.244;2022-10-16T16:40:05;16.50;99.90
22813;DHT22;11573;51.334;3.244;2022-10-16T16:42:32;16.50;99.90
22813;DHT22;11573;51.334;3.244;2022-10-16T16:44:59;16.40;99.90
22813;DHT22;11573;51.334;3.244;2022-10-16T16:47:26;16.30;99.90
22813;DHT22;11573;51.334;3.244;2022-10-16T16:49:53;16.30;99.90
22813;DHT22;11573;51.334;3.244;2022-10-16T16:52:20;16.20;99.90
22813;DHT22;11573;51.334;3.244;2022-10-16T16:54:48;16.20;99.90
22813;DHT22;11573;51.334;3.244;2022-10-16T16:57:19;16.20;99.90
22813;DHT22;11573;51.334;3.244;2022-10-16T16:59:46;16.20;99.90
22813;DHT22;11573;51.334;3.244;2022-10-16T17:02:13;16.20;99.90
22813;DHT22;11573;51.334;3.244;2022-10-16T17:04:40;16.20;99.90
22813;DHT22;11573;51.334;3.244;2022-10-16T17:07:07;16.20;99.90
22813;DHT22;11573;51.334;3.244;2022-10-16T17:09:34;16.10;99.90
22813;DHT22;11573;51.334;3.244;2022-10-16T17:12:01;16.00;99.90
22813;DHT22;11573;51.334;3.244;2022-10-16T17:14:28;16.10;99.90
22813;DHT22;11573;51.334;3.244;2022-10-16T17:16:55;16.10;99.90
22813;DHT22;11573;51.334;3.244;2022-10-16T17:19:22;16.10;99.90
22813;DHT22;11573;51.334;3.244;2022-10-16T17:21:50;16.10;99.90
22813;DHT22;11573;51.334;3.244;2022-10-16T17:24:17;16.10;99.90
22813;DHT22;11573;51.334;3.244;2022-10-16T17:26:45;16.10;99.90
22813;DHT22;11573;51.334;3.244;2022-10-16T17:29:16;16.00;99.90